sensor_id;sensor_type;location;lat;lon;timestamp;pressure;altitude;pressure_sealevel;temperature;humidity
23223;BME280;11780;13.904;100.620;2023-05-22T00:01:12;100879.72;;;33.92;57.02
23223;BME280;11780;13.904;100.620;2023-05-22T00:03:45;100882.16;;;33.93;57.28
23223;BME280;11780;13.904;100.620;2023-05-22T00:06:15;100890.13;;;33.95;56.99
23223;BME280;11780;13.904;100.620;2023-05-22T00:08:47;100894.88;;;33.94;57.22
23223;BME280;11780;13.904;100.620;2023-05-22T00:11:17;100897.19;;;33.92;57.09
23223;BME280;11780;13.904;100.620;2023-05-22T00:13:48;100893.25;;;33.93;57.17
23223;BME280;11780;13.904;100.620;2023-05-22T00:16:18;100911.06;;;33.92;57.06
23223;BME280;11780;13.904;100.620;2023-05-22T00:18:49;100922.16;;;33.92;56.98
23223;BME280;11780;13.904;100.620;2023-05-22T00:21:19;100924.94;;;33.92;56.99
23223;BME280;11780;13.904;100.620;2023-05-22T00:23:50;100925.41;;;33.94;57.10
23223;BME280;11780;13.904;100.620;2023-05-22T00:26:20;100926.19;;;33.95;57.03
23223;BME280;11780;13.904;100.620;2023-05-22T00:28:53;100934.88;;;33.93;57.07
23223;BME280;11780;13.904;100.620;2023-05-22T00:31:24;100941.25;;;33.94;57.07
23223;BME280;11780;13.904;100.620;2023-05-22T00:33:54;100934.53;;;33.95;56.77
23223;BME280;11780;13.904;100.620;2023-05-22T00:36:25;100944.34;;;33.92;56.98
23223;BME280;11780;13.904;100.620;2023-05-22T00:38:55;100943.19;;;33.93;56.79
23223;BME280;11780;13.904;100.620;2023-05-22T00:41:26;100954.41;;;33.97;56.87
23223;BME280;11780;13.904;100.620;2023-05-22T00:43:57;100946.94;;;33.97;56.88
23223;BME280;11780;13.904;100.620;2023-05-22T00:46:27;100946.25;;;34.00;56.75
23223;BME280;11780;13.904;100.620;2023-05-22T00:48:58;100949.69;;;33.97;56.95
23223;BME280;11780;13.904;100.620;2023-05-22T00:51:28;100954.78;;;33.95;56.97
23223;BME280;11780;13.904;100.620;2023-05-22T00:53:59;100963.09;;;33.95;56.94
23223;BME280;11780;13.904;100.620;2023-05-22T00:56:29;100958.34;;;33.96;57.07
23223;BME280;11780;13.904;100.620;2023-05-22T00:59:00;100956.53;;;34.00;56.70
23223;BME280;11780;13.904;100.620;2023-05-22T01:01:31;100955.94;;;33.94;56.97
23223;BME280;11780;13.904;100.620;2023-05-22T01:04:05;100950.38;;;33.94;56.84
23223;BME280;11780;13.904;100.620;2023-05-22T01:06:39;100962.75;;;33.97;56.78
23223;BME280;11780;13.904;100.620;2023-05-22T01:09:11;100957.19;;;33.97;56.85
23223;BME280;11780;13.904;100.620;2023-05-22T01:20:01;100954.41;;;33.97;56.92
23223;BME280;11780;13.904;100.620;2023-05-22T01:28:40;100956.31;;;34.05;56.31
23223;BME280;11780;13.904;100.620;2023-05-22T01:31:15;100970.53;;;34.04;56.59
23223;BME280;11780;13.904;100.620;2023-05-22T01:33:53;100968.09;;;34.02;56.33
23223;BME280;11780;13.904;100.620;2023-05-22T01:36:27;100975.94;;;34.00;56.57
23223;BME280;11780;13.904;100.620;2023-05-22T01:39:00;100965.69;;;34.00;56.51
23223;BME280;11780;13.904;100.620;2023-05-22T01:41:33;100964.53;;;34.02;56.78
23223;BME280;11780;13.904;100.620;2023-05-22T01:44:04;100958.63;;;34.03;56.78
23223;BME280;11780;13.904;100.620;2023-05-22T01:46:35;100962.19;;;34.04;56.84
23223;BME280;11780;13.904;100.620;2023-05-22T01:49:05;100957.13;;;34.06;56.57
23223;BME280;11780;13.904;100.620;2023-05-22T01:51:50;100967.06;;;34.07;56.78
23223;BME280;11780;13.904;100.620;2023-05-22T01:57:33;100983.72;;;34.07;56.60
23223;BME280;11780;13.904;100.620;2023-05-22T02:00:11;100986.50;;;34.07;56.06
23223;BME280;11780;13.904;100.620;2023-05-22T02:02:48;100990.44;;;34.06;56.24
23223;BME280;11780;13.904;100.620;2023-05-22T02:05:21;100983.25;;;34.05;56.38
23223;BME280;11780;13.904;100.620;2023-05-22T02:07:55;100978.84;;;34.04;56.24
23223;BME280;11780;13.904;100.620;2023-05-22T02:10:28;100977.03;;;34.08;56.28
23223;BME280;11780;13.904;100.620;2023-05-22T02:13:00;100985.34;;;34.08;56.32
23223;BME280;11780;13.904;100.620;2023-05-22T02:15:31;100985.03;;;34.09;56.31
23223;BME280;11780;13.904;100.620;2023-05-22T02:18:02;100992.53;;;34.09;55.93
23223;BME280;11780;13.904;100.620;2023-05-22T02:20:34;100986.19;;;34.08;55.85
23223;BME280;11780;13.904;100.620;2023-05-22T02:23:05;100984.19;;;34.09;55.27
23223;BME280;11780;13.904;100.620;2023-05-22T02:25:35;100993.81;;;34.11;55.49
23223;BME280;11780;13.904;100.620;2023-05-22T02:28:06;100982.69;;;34.11;55.29
23223;BME280;11780;13.904;100.620;2023-05-22T02:30:36;100987.44;;;34.11;56.31
23223;BME280;11780;13.904;100.620;2023-05-22T02:33:07;100982.69;;;34.11;55.83
23223;BME280;11780;13.904;100.620;2023-05-22T02:35:38;100981.91;;;34.11;56.11
23223;BME280;11780;13.904;100.620;2023-05-22T02:38:08;100983.53;;;34.12;55.95
23223;BME280;11780;13.904;100.620;2023-05-22T02:40:39;100981.06;;;34.10;56.21
23223;BME280;11780;13.904;100.620;2023-05-22T02:43:09;100989.88;;;34.12;55.92
23223;BME280;11780;13.904;100.620;2023-05-22T02:45:40;100977.50;;;34.10;56.07
23223;BME280;11780;13.904;100.620;2023-05-22T02:48:10;100976.00;;;34.12;55.79
23223;BME280;11780;13.904;100.620;2023-05-22T02:50:42;100981.22;;;34.14;55.78
23223;BME280;11780;13.904;100.620;2023-05-22T02:53:13;100973.22;;;34.12;55.95
23223;BME280;11780;13.904;100.620;2023-05-22T02:55:44;100976.00;;;34.12;56.07
23223;BME280;11780;13.904;100.620;2023-05-22T02:58:15;100983.66;;;34.15;56.04
23223;BME280;11780;13.904;100.620;2023-05-22T03:00:46;100986.91;;;34.18;55.54
23223;BME280;11780;13.904;100.620;2023-05-22T03:03:17;100993.25;;;34.18;55.77
23223;BME280;11780;13.904;100.620;2023-05-22T03:05:47;100982.16;;;34.18;55.87
23223;BME280;11780;13.904;100.620;2023-05-22T03:08:18;100982.97;;;34.19;55.94
23223;BME280;11780;13.904;100.620;2023-05-22T03:10:49;100980.53;;;34.17;55.96
23223;BME280;11780;13.904;100.620;2023-05-22T03:13:20;100967.94;;;34.20;55.75
23223;BME280;11780;13.904;100.620;2023-05-22T03:15:51;100966.44;;;34.22;55.77
23223;BME280;11780;13.904;100.620;2023-05-22T03:18:22;100969.88;;;34.19;55.62
23223;BME280;11780;13.904;100.620;2023-05-22T03:20:55;100960.19;;;34.25;55.51
23223;BME280;11780;13.904;100.620;2023-05-22T03:23:25;100964.00;;;34.21;55.78
23223;BME280;11780;13.904;100.620;2023-05-22T03:25:55;100963.78;;;34.26;55.36
23223;BME280;11780;13.904;100.620;2023-05-22T03:28:33;100957.91;;;34.27;55.24
23223;BME280;11780;13.904;100.620;2023-05-22T03:31:03;100953.03;;;34.24;55.63
23223;BME280;11780;13.904;100.620;2023-05-22T03:33:45;100953.50;;;34.26;55.54
23223;BME280;11780;13.904;100.620;2023-05-22T03:36:17;100953.50;;;34.26;55.50
23223;BME280;11780;13.904;100.620;2023-05-22T03:38:48;100952.34;;;34.27;55.36
23223;BME280;11780;13.904;100.620;2023-05-22T03:41:18;100950.03;;;34.29;54.96
23223;BME280;11780;13.904;100.620;2023-05-22T03:43:50;100948.53;;;34.32;55.26
23223;BME280;11780;13.904;100.620;2023-05-22T03:46:22;100944.97;;;34.31;55.00
23223;BME280;11780;13.904;100.620;2023-05-22T03:48:53;100935.81;;;34.31;54.99
23223;BME280;11780;13.904;100.620;2023-05-22T03:51:24;100935.00;;;34.30;55.17
23223;BME280;11780;13.904;100.620;2023-05-22T03:53:54;100931.06;;;34.31;54.69
23223;BME280;11780;13.904;100.620;2023-05-22T03:56:27;100932.69;;;34.33;54.79
23223;BME280;11780;13.904;100.620;2023-05-22T03:58:58;100919.97;;;34.31;54.54
23223;BME280;11780;13.904;100.620;2023-05-22T04:01:28;100931.06;;;34.31;54.74
23223;BME280;11780;13.904;100.620;2023-05-22T04:03:58;100925.97;;;34.34;54.62
23223;BME280;11780;13.904;100.620;2023-05-22T04:06:29;100924.00;;;34.34;54.36
23223;BME280;11780;13.904;100.620;2023-05-22T04:09:03;100917.63;;;34.34;54.43
23223;BME280;11780;13.904;100.620;2023-05-22T04:11:33;100927.59;;;34.35;54.37
23223;BME280;11780;13.904;100.620;2023-05-22T04:14:05;100929.22;;;34.36;54.56
23223;BME280;11780;13.904;100.620;2023-05-22T04:16:35;100928.06;;;34.37;54.06
23223;BME280;11780;13.904;100.620;2023-05-22T04:19:06;100921.34;;;34.38;54.08
23223;BME280;11780;13.904;100.620;2023-05-22T04:21:38;100919.25;;;34.35;54.19
23223;BME280;11780;13.904;100.620;2023-05-22T04:24:09;100921.81;;;34.40;54.17
23223;BME280;11780;13.904;100.620;2023-05-22T04:26:39;100930.16;;;34.40;53.97
23223;BME280;11780;13.904;100.620;2023-05-22T04:29:11;100921.81;;;34.40;54.18
23223;BME280;11780;13.904;100.620;2023-05-22T04:31:43;100912.94;;;34.46;53.69
23223;BME280;11780;13.904;100.620;2023-05-22T04:34:14;100912.16;;;34.46;53.85
23223;BME280;11780;13.904;100.620;2023-05-22T04:36:45;100910.19;;;34.46;53.72
23223;BME280;11780;13.904;100.620;2023-05-22T04:39:16;100906.13;;;34.44;53.96
23223;BME280;11780;13.904;100.620;2023-05-22T04:41:46;100908.22;;;34.47;53.71
23223;BME280;11780;13.904;100.620;2023-05-22T04:44:19;100899.66;;;34.52;53.84
23223;BME280;11780;13.904;100.620;2023-05-22T04:46:51;100900.13;;;34.54;53.81
23223;BME280;11780;13.904;100.620;2023-05-22T04:49:22;100894.56;;;34.54;53.76
23223;BME280;11780;13.904;100.620;2023-05-22T04:51:54;100893.50;;;34.59;53.46
23223;BME280;11780;13.904;100.620;2023-05-22T04:54:26;100885.31;;;34.63;53.39
23223;BME280;11780;13.904;100.620;2023-05-22T04:56:56;100882.41;;;34.59;53.14
23223;BME280;11780;13.904;100.620;2023-05-22T04:59:26;100885.06;;;34.55;53.18
23223;BME280;11780;13.904;100.620;2023-05-22T05:01:57;100882.28;;;34.55;53.17
23223;BME280;11780;13.904;100.620;2023-05-22T05:04:27;100890.63;;;34.55;53.02
23223;BME280;11780;13.904;100.620;2023-05-22T05:06:57;100883.81;;;34.53;53.18
23223;BME280;11780;13.904;100.620;2023-05-22T05:09:28;100879.75;;;34.50;53.30
23223;BME280;11780;13.904;100.620;2023-05-22T05:12:00;100875.47;;;34.53;53.03
23223;BME280;11780;13.904;100.620;2023-05-22T05:14:30;100876.63;;;34.52;53.13
23223;BME280;11780;13.904;100.620;2023-05-22T05:17:01;100874.66;;;34.52;53.05
23223;BME280;11780;13.904;100.620;2023-05-22T05:19:32;100865.84;;;34.50;53.03
23223;BME280;11780;13.904;100.620;2023-05-22T05:22:03;100867.47;;;34.51;53.03
23223;BME280;11780;13.904;100.620;2023-05-22T05:24:34;100858.13;;;34.56;53.01
23223;BME280;11780;13.904;100.620;2023-05-22T05:27:05;100861.59;;;34.53;53.17
23223;BME280;11780;13.904;100.620;2023-05-22T05:29:36;100864.13;;;34.58;52.96
23223;BME280;11780;13.904;100.620;2023-05-22T05:32:22;100848.75;;;34.60;52.66
23223;BME280;11780;13.904;100.620;2023-05-22T05:35:00;100843.66;;;34.63;52.59
23223;BME280;11780;13.904;100.620;2023-05-22T05:37:44;100836.13;;;34.63;52.65
23223;BME280;11780;13.904;100.620;2023-05-22T05:40:14;100842.03;;;34.61;52.67
23223;BME280;11780;13.904;100.620;2023-05-22T05:42:49;100826.53;;;34.60;52.70
23223;BME280;11780;13.904;100.620;2023-05-22T05:45:25;100824.91;;;34.59;52.89
23223;BME280;11780;13.904;100.620;2023-05-22T05:47:56;100823.75;;;34.60;52.92
23223;BME280;11780;13.904;100.620;2023-05-22T05:50:26;100815.41;;;34.60;52.92
23223;BME280;11780;13.904;100.620;2023-05-22T05:52:57;100813.09;;;34.63;52.53
23223;BME280;11780;13.904;100.620;2023-05-22T05:55:37;100810.78;;;34.65;52.64
23223;BME280;11780;13.904;100.620;2023-05-22T05:58:08;100804.31;;;34.60;52.80
23223;BME280;11780;13.904;100.620;2023-05-22T06:00:51;100789.25;;;34.61;52.72
23223;BME280;11780;13.904;100.620;2023-05-22T06:03:22;100790.16;;;34.66;52.36
23223;BME280;11780;13.904;100.620;2023-05-22T06:06:11;100783.91;;;34.69;52.43
23223;BME280;11780;13.904;100.620;2023-05-22T06:09:09;100778.00;;;34.70;52.50
23223;BME280;11780;13.904;100.620;2023-05-22T06:12:03;100784.72;;;34.69;52.36
23223;BME280;11780;13.904;100.620;2023-05-22T06:14:33;100779.19;;;34.69;52.36
23223;BME280;11780;13.904;100.620;2023-05-22T06:17:05;100773.34;;;34.74;52.22
23223;BME280;11780;13.904;100.620;2023-05-22T06:19:40;100781.00;;;34.78;52.34
23223;BME280;11780;13.904;100.620;2023-05-22T06:22:12;100768.41;;;34.80;52.11
23223;BME280;11780;13.904;100.620;2023-05-22T06:24:46;100767.66;;;34.83;52.07
23223;BME280;11780;13.904;100.620;2023-05-22T06:27:23;100746.25;;;34.84;51.94
23223;BME280;11780;13.904;100.620;2023-05-22T06:29:56;100757.38;;;34.84;52.03
23223;BME280;11780;13.904;100.620;2023-05-22T06:32:30;100748.78;;;34.89;51.88
23223;BME280;11780;13.904;100.620;2023-05-22T06:35:01;100746.34;;;34.87;51.61
23223;BME280;11780;13.904;100.620;2023-05-22T06:37:32;100736.88;;;34.88;51.73
23223;BME280;11780;13.904;100.620;2023-05-22T06:40:06;100729.44;;;34.92;51.21
23223;BME280;11780;13.904;100.620;2023-05-22T06:42:47;100718.22;;;34.89;51.57
23223;BME280;11780;13.904;100.620;2023-05-22T06:45:31;100717.03;;;34.90;51.53
23223;BME280;11780;13.904;100.620;2023-05-22T06:48:19;100713.94;;;34.91;51.41
23223;BME280;11780;13.904;100.620;2023-05-22T06:50:59;100697.75;;;34.94;51.44
23223;BME280;11780;13.904;100.620;2023-05-22T06:53:30;100690.53;;;34.92;51.68
23223;BME280;11780;13.904;100.620;2023-05-22T06:56:01;100683.38;;;34.91;51.58
23223;BME280;11780;13.904;100.620;2023-05-22T06:58:50;100680.34;;;34.97;51.08
23223;BME280;11780;13.904;100.620;2023-05-22T07:01:25;100675.59;;;34.97;51.09
23223;BME280;11780;13.904;100.620;2023-05-22T07:04:07;100669.34;;;35.00;50.61
23223;BME280;11780;13.904;100.620;2023-05-22T07:06:58;100658.56;;;34.99;50.77
23223;BME280;11780;13.904;100.620;2023-05-22T07:09:28;100648.72;;;35.01;50.43
23223;BME280;11780;13.904;100.620;2023-05-22T07:11:59;100650.69;;;35.01;50.39
23223;BME280;11780;13.904;100.620;2023-05-22T07:14:30;100649.19;;;35.03;50.12
23223;BME280;11780;13.904;100.620;2023-05-22T07:17:01;100636.44;;;35.02;50.15
23223;BME280;11780;13.904;100.620;2023-05-22T07:19:37;100631.13;;;34.97;50.38
23223;BME280;11780;13.904;100.620;2023-05-22T07:22:08;100631.22;;;35.01;50.19
23223;BME280;11780;13.904;100.620;2023-05-22T07:24:39;100621.28;;;35.00;50.00
23223;BME280;11780;13.904;100.620;2023-05-22T07:27:10;100615.47;;;35.05;49.76
23223;BME280;11780;13.904;100.620;2023-05-22T07:29:41;100614.56;;;35.01;50.04
23223;BME280;11780;13.904;100.620;2023-05-22T07:32:12;100609.69;;;34.98;50.00
23223;BME280;11780;13.904;100.620;2023-05-22T07:34:43;100595.81;;;34.98;49.88
23223;BME280;11780;13.904;100.620;2023-05-22T07:37:14;100582.47;;;35.03;50.10
23223;BME280;11780;13.904;100.620;2023-05-22T07:39:49;100584.69;;;34.98;50.13
23223;BME280;11780;13.904;100.620;2023-05-22T07:42:20;100574.41;;;34.98;50.05
23223;BME280;11780;13.904;100.620;2023-05-22T07:44:53;100580.28;;;34.97;50.30
23223;BME280;11780;13.904;100.620;2023-05-22T07:47:23;100573.56;;;34.98;50.21
23223;BME280;11780;13.904;100.620;2023-05-22T07:49:54;100570.44;;;34.99;50.33
23223;BME280;11780;13.904;100.620;2023-05-22T07:52:24;100557.72;;;34.98;50.14
23223;BME280;11780;13.904;100.620;2023-05-22T07:54:55;100557.09;;;35.05;50.26
23223;BME280;11780;13.904;100.620;2023-05-22T07:57:27;100549.47;;;35.02;50.22
23223;BME280;11780;13.904;100.620;2023-05-22T08:00:06;100542.28;;;35.01;50.30
23223;BME280;11780;13.904;100.620;2023-05-22T08:02:42;100543.13;;;35.01;50.46
23223;BME280;11780;13.904;100.620;2023-05-22T08:05:13;100543.19;;;35.05;50.45
23223;BME280;11780;13.904;100.620;2023-05-22T08:07:43;100534.84;;;35.05;50.52
23223;BME280;11780;13.904;100.620;2023-05-22T08:10:15;100536.47;;;35.06;50.30
23223;BME280;11780;13.904;100.620;2023-05-22T08:12:46;100528.94;;;35.06;50.42
23223;BME280;11780;13.904;100.620;2023-05-22T08:15:16;100516.31;;;35.09;50.49
23223;BME280;11780;13.904;100.620;2023-05-22T08:17:47;100519.09;;;35.09;50.34
23223;BME280;11780;13.904;100.620;2023-05-22T08:20:17;100527.44;;;35.09;50.40
23223;BME280;11780;13.904;100.620;2023-05-22T08:22:49;100526.25;;;35.10;50.55
23223;BME280;11780;13.904;100.620;2023-05-22T08:25:19;100527.06;;;35.11;50.53
23223;BME280;11780;13.904;100.620;2023-05-22T08:27:50;100525.44;;;35.10;50.61
23223;BME280;11780;13.904;100.620;2023-05-22T08:30:20;100518.28;;;35.09;50.66
23223;BME280;11780;13.904;100.620;2023-05-22T08:32:51;100530.09;;;35.05;50.78
23223;BME280;11780;13.904;100.620;2023-05-22T08:35:21;100531.72;;;35.06;50.74
23223;BME280;11780;13.904;100.620;2023-05-22T08:37:52;100538.34;;;35.02;50.90
23223;BME280;11780;13.904;100.620;2023-05-22T08:40:23;100534.84;;;35.05;50.87
23223;BME280;11780;13.904;100.620;2023-05-22T08:42:58;100537.19;;;35.03;51.03
23223;BME280;11780;13.904;100.620;2023-05-22T08:45:29;100531.00;;;35.10;50.81
23223;BME280;11780;13.904;100.620;2023-05-22T08:48:04;100540.59;;;35.12;50.59
23223;BME280;11780;13.904;100.620;2023-05-22T08:50:41;100538.63;;;35.13;50.75
23223;BME280;11780;13.904;100.620;2023-05-22T08:53:14;100520.78;;;35.14;50.48
23223;BME280;11780;13.904;100.620;2023-05-22T08:55:46;100513.63;;;35.13;50.38
23223;BME280;11780;13.904;100.620;2023-05-22T08:58:18;100512.78;;;35.12;50.39
23223;BME280;11780;13.904;100.620;2023-05-22T09:00:48;100499.78;;;35.16;50.31
23223;BME280;11780;13.904;100.620;2023-05-22T09:03:18;100492.28;;;35.17;50.21
23223;BME280;11780;13.904;100.620;2023-05-22T09:05:50;100488.66;;;35.16;50.31
23223;BME280;11780;13.904;100.620;2023-05-22T09:08:20;100487.59;;;35.21;50.24
23223;BME280;11780;13.904;100.620;2023-05-22T09:10:51;100486.06;;;35.24;50.05
23223;BME280;11780;13.904;100.620;2023-05-22T09:13:30;100490.03;;;35.22;50.15
23223;BME280;11780;13.904;100.620;2023-05-22T09:16:07;100484.91;;;35.25;50.11
23223;BME280;11780;13.904;100.620;2023-05-22T09:18:39;100482.13;;;35.25;50.31
23223;BME280;11780;13.904;100.620;2023-05-22T09:21:12;100471.81;;;35.25;50.50
23223;BME280;11780;13.904;100.620;2023-05-22T09:24:00;100471.28;;;35.19;50.65
23223;BME280;11780;13.904;100.620;2023-05-22T09:26:30;100467.47;;;35.28;50.45
23223;BME280;11780;13.904;100.620;2023-05-22T09:29:04;100479.34;;;35.25;50.91
23223;BME280;11780;13.904;100.620;2023-05-22T09:31:41;100485.38;;;35.27;50.70
23223;BME280;11780;13.904;100.620;2023-05-22T09:34:15;100483.75;;;35.26;51.12
23223;BME280;11780;13.904;100.620;2023-05-22T09:36:46;100490.19;;;35.30;51.53
23223;BME280;11780;13.904;100.620;2023-05-22T09:39:18;100502.56;;;35.32;52.33
23223;BME280;11780;13.904;100.620;2023-05-22T09:41:49;100504.59;;;35.35;52.59
23223;BME280;11780;13.904;100.620;2023-05-22T09:44:23;100515.38;;;35.37;53.42
23223;BME280;11780;13.904;100.620;2023-05-22T09:46:55;100508.66;;;35.38;53.38
23223;BME280;11780;13.904;100.620;2023-05-22T09:49:26;100508.28;;;35.40;53.37
23223;BME280;11780;13.904;100.620;2023-05-22T09:51:56;100509.09;;;35.40;53.92
23223;BME280;11780;13.904;100.620;2023-05-22T09:54:30;100516.28;;;35.41;54.36
23223;BME280;11780;13.904;100.620;2023-05-22T09:57:05;100523.72;;;35.37;54.32
23223;BME280;11780;13.904;100.620;2023-05-22T09:59:39;100528.56;;;35.40;54.49
23223;BME280;11780;13.904;100.620;2023-05-22T10:02:12;100540.50;;;35.41;54.53
23223;BME280;11780;13.904;100.620;2023-05-22T10:04:43;100543.28;;;35.41;54.76
23223;BME280;11780;13.904;100.620;2023-05-22T10:07:31;100548.03;;;35.40;55.14
23223;BME280;11780;13.904;100.620;2023-05-22T10:10:06;100548.50;;;35.42;55.43
23223;BME280;11780;13.904;100.620;2023-05-22T10:12:52;100549.66;;;35.41;55.35
23223;BME280;11780;13.904;100.620;2023-05-22T10:15:25;100555.56;;;35.40;55.44
23223;BME280;11780;13.904;100.620;2023-05-22T10:17:57;100547.66;;;35.42;55.58
23223;BME280;11780;13.904;100.620;2023-05-22T10:20:29;100554.41;;;35.41;55.72
23223;BME280;11780;13.904;100.620;2023-05-22T10:23:01;100559.16;;;35.40;55.54
23223;BME280;11780;13.904;100.620;2023-05-22T10:25:34;100572.25;;;35.40;55.53
23223;BME280;11780;13.904;100.620;2023-05-22T10:28:06;100565.88;;;35.39;55.62
23223;BME280;11780;13.904;100.620;2023-05-22T10:31:01;100585.63;;;35.34;55.43
23223;BME280;11780;13.904;100.620;2023-05-22T10:33:58;100601.84;;;35.32;55.49
23223;BME280;11780;13.904;100.620;2023-05-22T10:37:01;100602.22;;;35.30;55.13
23223;BME280;11780;13.904;100.620;2023-05-22T10:40:00;100603.00;;;35.31;55.34
23223;BME280;11780;13.904;100.620;2023-05-22T10:42:33;100612.88;;;35.28;55.44
23223;BME280;11780;13.904;100.620;2023-05-22T10:45:06;100630.75;;;35.27;55.33
23223;BME280;11780;13.904;100.620;2023-05-22T10:47:36;100625.53;;;35.26;55.31
23223;BME280;11780;13.904;100.620;2023-05-22T10:50:08;100629.94;;;35.27;55.26
23223;BME280;11780;13.904;100.620;2023-05-22T10:52:40;100622.75;;;35.26;55.53
23223;BME280;11780;13.904;100.620;2023-05-22T10:55:10;100626.34;;;35.26;55.39
23223;BME280;11780;13.904;100.620;2023-05-22T10:57:41;100633.78;;;35.22;55.38
23223;BME280;11780;13.904;100.620;2023-05-22T11:00:14;100644.88;;;35.22;55.48
23223;BME280;11780;13.904;100.620;2023-05-22T11:02:48;100656.84;;;35.22;55.49
23223;BME280;11780;13.904;100.620;2023-05-22T11:08:11;100668.66;;;35.19;55.58
23223;BME280;11780;13.904;100.620;2023-05-22T11:11:10;100668.22;;;35.17;55.84
23223;BME280;11780;13.904;100.620;2023-05-22T11:13:41;100672.53;;;35.15;55.71
23223;BME280;11780;13.904;100.620;2023-05-22T11:16:14;100686.75;;;35.13;55.67
23223;BME280;11780;13.904;100.620;2023-05-22T11:18:45;100686.31;;;35.11;55.92
23223;BME280;11780;13.904;100.620;2023-05-22T11:21:15;100693.84;;;35.11;55.96
23223;BME280;11780;13.904;100.620;2023-05-22T11:23:46;100703.44;;;35.13;56.21
23223;BME280;11780;13.904;100.620;2023-05-22T11:26:20;100707.38;;;35.12;56.30
23223;BME280;11780;13.904;100.620;2023-05-22T11:28:54;100706.94;;;35.10;56.51
23223;BME280;11780;13.904;100.620;2023-05-22T11:31:25;100704.88;;;35.07;56.61
23223;BME280;11780;13.904;100.620;2023-05-22T11:33:56;100703.72;;;35.08;56.84
23223;BME280;11780;13.904;100.620;2023-05-22T11:36:27;100704.88;;;35.07;57.11
23223;BME280;11780;13.904;100.620;2023-05-22T11:38:58;100708.81;;;35.06;57.08
23223;BME280;11780;13.904;100.620;2023-05-22T11:41:32;100710.34;;;35.03;56.96
23223;BME280;11780;13.904;100.620;2023-05-22T11:44:07;100713.44;;;35.02;57.25
23223;BME280;11780;13.904;100.620;2023-05-22T11:46:37;100723.31;;;34.99;57.22
23223;BME280;11780;13.904;100.620;2023-05-22T11:49:08;100728.50;;;35.01;57.07
23223;BME280;11780;13.904;100.620;2023-05-22T11:51:50;100746.72;;;34.98;56.80
23223;BME280;11780;13.904;100.620;2023-05-22T11:54:21;100754.59;;;34.96;56.62
23223;BME280;11780;13.904;100.620;2023-05-22T11:56:52;100751.81;;;34.96;56.65
23223;BME280;11780;13.904;100.620;2023-05-22T11:59:22;100754.94;;;34.95;56.66
23223;BME280;11780;13.904;100.620;2023-05-22T12:01:53;100756.41;;;34.92;56.99
23223;BME280;11780;13.904;100.620;2023-05-22T12:04:23;100758.41;;;34.91;56.72
23223;BME280;11780;13.904;100.620;2023-05-22T12:06:54;100758.41;;;34.91;56.82
23223;BME280;11780;13.904;100.620;2023-05-22T12:09:27;100767.91;;;34.90;56.54
23223;BME280;11780;13.904;100.620;2023-05-22T12:11:58;100759.09;;;34.88;56.59
23223;BME280;11780;13.904;100.620;2023-05-22T12:14:30;100756.69;;;34.87;56.64
23223;BME280;11780;13.904;100.620;2023-05-22T12:17:01;100766.97;;;34.86;56.92
23223;BME280;11780;13.904;100.620;2023-05-22T12:19:52;100770.56;;;34.87;56.92
23223;BME280;11780;13.904;100.620;2023-05-22T12:22:22;100779.72;;;34.87;56.76
23223;BME280;11780;13.904;100.620;2023-05-22T12:24:55;100784.47;;;34.87;56.38
23223;BME280;11780;13.904;100.620;2023-05-22T12:27:28;100788.41;;;34.86;56.34
23223;BME280;11780;13.904;100.620;2023-05-22T12:30:08;100795.13;;;34.85;56.20
23223;BME280;11780;13.904;100.620;2023-05-22T12:32:39;100804.25;;;34.85;56.33
23223;BME280;11780;13.904;100.620;2023-05-22T12:35:16;100814.22;;;34.86;56.15
23223;BME280;11780;13.904;100.620;2023-05-22T12:37:49;100809.81;;;34.85;56.18
23223;BME280;11780;13.904;100.620;2023-05-22T12:40:20;100812.94;;;34.84;56.44
23223;BME280;11780;13.904;100.620;2023-05-22T12:42:50;100818.03;;;34.82;56.55
23223;BME280;11780;13.904;100.620;2023-05-22T12:45:42;100827.63;;;34.84;56.38
23223;BME280;11780;13.904;100.620;2023-05-22T12:48:13;100832.72;;;34.82;56.52
23223;BME280;11780;13.904;100.620;2023-05-22T12:50:45;100839.69;;;34.88;56.63
23223;BME280;11780;13.904;100.620;2023-05-22T12:53:15;100843.38;;;34.92;56.52
23223;BME280;11780;13.904;100.620;2023-05-22T12:55:46;100862.28;;;34.87;56.86
23223;BME280;11780;13.904;100.620;2023-05-22T12:58:16;100867.22;;;34.81;56.83
23223;BME280;11780;13.904;100.620;2023-05-22T13:00:47;100865.97;;;34.79;56.92
23223;BME280;11780;13.904;100.620;2023-05-22T13:03:18;100857.53;;;34.75;57.10
23223;BME280;11780;13.904;100.620;2023-05-22T13:05:49;100856.59;;;34.58;57.29
23223;BME280;11780;13.904;100.620;2023-05-22T13:08:19;100868.88;;;34.70;57.23
23223;BME280;11780;13.904;100.620;2023-05-22T13:10:51;100880.56;;;34.63;57.52
23223;BME280;11780;13.904;100.620;2023-05-22T13:13:21;100885.53;;;34.57;57.73
23223;BME280;11780;13.904;100.620;2023-05-22T13:15:52;100890.16;;;34.66;57.64
23223;BME280;11780;13.904;100.620;2023-05-22T13:18:22;100890.31;;;34.69;57.53
23223;BME280;11780;13.904;100.620;2023-05-22T13:20:52;100890.78;;;34.71;57.73